createdAt,value
2023-03-06T00:00:29.773Z,14.65
2023-03-06T00:02:57.044Z,13.35
2023-03-06T00:05:24.098Z,12.80
2023-03-06T00:07:51.059Z,14.15
2023-03-06T00:10:23.821Z,17.55
2023-03-06T00:12:55.767Z,15.85
2023-03-06T00:15:23.776Z,15.00
2023-03-06T00:17:51.088Z,15.87
2023-03-06T00:20:18.453Z,14.55
2023-03-06T00:22:45.365Z,15.82
2023-03-06T00:25:18.539Z,17.48
2023-03-06T00:27:45.754Z,18.42
2023-03-06T00:30:15.875Z,18.33
2023-03-06T00:32:43.474Z,19.25
2023-03-06T00:35:11.102Z,17.77
2023-03-06T00:37:38.461Z,21.50
2023-03-06T00:40:11.702Z,21.00
2023-03-06T00:42:38.655Z,19.07
2023-03-06T00:45:05.856Z,16.83
2023-03-06T00:47:33.027Z,19.75
2023-03-06T00:49:59.791Z,22.70
2023-03-06T00:52:26.650Z,22.75
2023-03-06T00:54:53.629Z,21.17
2023-03-06T00:57:20.489Z,24.55
2023-03-06T00:59:47.262Z,20.83
2023-03-06T01:02:14.543Z,23.50
2023-03-06T01:04:41.758Z,17.90
2023-03-06T01:07:08.660Z,18.83
2023-03-06T01:09:35.439Z,20.75
2023-03-06T01:12:02.275Z,17.15
2023-03-06T01:14:29.295Z,17.70
2023-03-06T01:16:56.268Z,18.48
2023-03-06T01:19:23.202Z,18.00
2023-03-06T01:21:50.783Z,19.02
2023-03-06T01:24:17.659Z,18.65
2023-03-06T01:26:45.042Z,19.48
2023-03-06T01:29:11.908Z,17.48
2023-03-06T01:31:39.008Z,20.10
2023-03-06T01:34:09.112Z,17.98
2023-03-06T01:36:36.003Z,18.30
2023-03-06T01:39:03.785Z,19.83
2023-03-06T01:41:32.566Z,18.40
2023-03-06T01:43:59.575Z,16.87
2023-03-06T01:46:30.190Z,16.52
2023-03-06T01:49:00.076Z,25.98
2023-03-06T01:51:32.053Z,40.60
2023-03-06T01:54:02.407Z,70.18
2023-03-06T01:56:30.027Z,76.17
2023-03-06T01:58:58.393Z,40.75
2023-03-06T02:01:26.279Z,50.25
2023-03-06T02:03:54.674Z,41.95
2023-03-06T02:06:22.758Z,24.92
2023-03-06T02:08:52.813Z,17.77
2023-03-06T02:11:24.407Z,13.48
2023-03-06T02:13:53.699Z,14.43
2023-03-06T02:16:25.966Z,15.05
2023-03-06T02:18:53.443Z,17.73
2023-03-06T02:21:27.204Z,12.33
2023-03-06T02:24:12.225Z,15.02
2023-03-06T02:26:41.210Z,14.32
2023-03-06T02:29:09.211Z,13.75
2023-03-06T02:31:36.164Z,16.00
2023-03-06T02:34:15.351Z,13.60
2023-03-06T02:36:47.676Z,14.65
2023-03-06T02:39:15.885Z,13.60
2023-03-06T02:41:42.897Z,13.80
2023-03-06T02:44:09.928Z,14.23
2023-03-06T02:46:36.780Z,15.07
2023-03-06T02:49:03.609Z,12.60
2023-03-06T02:51:30.475Z,12.07
2023-03-06T02:53:57.397Z,13.40
2023-03-06T02:56:24.399Z,10.80
2023-03-06T02:58:52.063Z,11.10
2023-03-06T03:01:19.794Z,12.32
2023-03-06T03:03:47.136Z,12.77
2023-03-06T03:06:14.836Z,13.85
2023-03-06T03:08:42.589Z,13.88
2023-03-06T03:11:10.183Z,15.97
2023-03-06T03:13:39.992Z,18.25
2023-03-06T03:16:15.361Z,19.23
2023-03-06T03:18:48.122Z,15.80
2023-03-06T03:21:17.264Z,15.23
2023-03-06T03:23:45.090Z,17.03
2023-03-06T03:26:15.835Z,18.77
2023-03-06T03:28:47.254Z,17.70
2023-03-06T03:31:17.285Z,17.48
2023-03-06T03:33:44.340Z,18.75
2023-03-06T03:36:12.349Z,18.70
2023-03-06T03:38:42.639Z,19.58
2023-03-06T03:41:10.022Z,19.50
2023-03-06T03:43:36.940Z,19.02
2023-03-06T03:46:04.505Z,17.92
2023-03-06T03:48:31.805Z,14.63
2023-03-06T03:51:11.874Z,18.77
2023-03-06T03:53:44.025Z,17.25
2023-03-06T03:56:13.296Z,16.75
2023-03-06T03:58:48.401Z,13.82
2023-03-06T04:01:15.579Z,14.57
2023-03-06T04:03:43.133Z,15.32
2023-03-06T04:06:11.358Z,13.10
2023-03-06T04:08:39.425Z,13.65
2023-03-06T04:11:06.399Z,13.75
2023-03-06T04:13:33.197Z,12.43
2023-03-06T04:16:00.684Z,16.38
2023-03-06T04:18:29.905Z,11.10
2023-03-06T04:21:01.169Z,11.95
2023-03-06T04:23:28.414Z,12.90
2023-03-06T04:25:56.166Z,11.50
2023-03-06T04:28:23.700Z,11.55
2023-03-06T04:30:51.227Z,10.32
2023-03-06T04:33:20.173Z,10.90
2023-03-06T04:35:47.122Z,10.40
2023-03-06T04:38:19.619Z,12.40
2023-03-06T04:40:46.712Z,13.52
2023-03-06T04:43:13.495Z,11.85
2023-03-06T04:45:40.373Z,12.65
2023-03-06T04:48:07.780Z,12.20
2023-03-06T04:50:35.300Z,12.00
2023-03-06T04:53:03.500Z,14.77
2023-03-06T04:55:30.867Z,12.93
2023-03-06T04:57:58.965Z,13.13
2023-03-06T05:00:31.714Z,11.80
2023-03-06T05:03:00.883Z,13.73
2023-03-06T05:05:28.346Z,14.07
2023-03-06T05:07:55.492Z,13.63
2023-03-06T05:10:23.410Z,12.82
2023-03-06T05:12:50.402Z,14.43
2023-03-06T05:15:17.950Z,17.67
2023-03-06T05:17:44.874Z,13.23
2023-03-06T05:20:12.534Z,14.75
2023-03-06T05:22:40.095Z,14.88
2023-03-06T05:25:07.507Z,15.27
2023-03-06T05:27:34.888Z,13.63
2023-03-06T05:30:01.861Z,16.40
2023-03-06T05:32:28.839Z,17.20
2023-03-06T05:34:55.780Z,15.98
2023-03-06T05:37:25.919Z,18.20
2023-03-06T05:39:52.981Z,17.10
2023-03-06T05:42:19.883Z,18.58
2023-03-06T05:44:46.873Z,16.23
2023-03-06T05:47:14.761Z,16.63
2023-03-06T05:49:41.725Z,17.00
2023-03-06T05:52:09.273Z,17.67
2023-03-06T05:54:37.614Z,15.90
2023-03-06T05:57:05.690Z,14.02
2023-03-06T05:59:39.590Z,13.57
2023-03-06T06:02:06.988Z,13.40
2023-03-06T06:04:33.969Z,12.63
2023-03-06T06:07:01.196Z,14.57
2023-03-06T06:09:28.624Z,14.60
2023-03-06T06:12:01.581Z,15.93
2023-03-06T06:14:29.808Z,14.32
2023-03-06T06:16:56.804Z,14.47
2023-03-06T06:19:24.013Z,12.60
2023-03-06T06:21:53.833Z,13.35
2023-03-06T06:24:23.115Z,13.65
2023-03-06T06:26:51.792Z,16.00
2023-03-06T06:29:19.149Z,10.97
2023-03-06T06:31:46.468Z,11.27
2023-03-06T06:34:14.299Z,10.48
2023-03-06T06:36:41.854Z,11.27
2023-03-06T06:39:09.753Z,10.57
2023-03-06T06:41:54.920Z,10.97
2023-03-06T06:44:23.671Z,9.25
2023-03-06T06:47:21.311Z,8.88
2023-03-06T06:49:37.455Z,10.98
2023-03-06T06:52:05.904Z,10.15
2023-03-06T06:54:34.225Z,9.10
2023-03-06T06:57:01.296Z,11.23
2023-03-06T06:59:28.240Z,12.10
2023-03-06T07:01:55.131Z,8.88
2023-03-06T07:04:21.959Z,7.45
2023-03-06T07:06:48.843Z,10.80
2023-03-06T07:09:16.422Z,11.32
2023-03-06T07:11:43.360Z,10.90
2023-03-06T07:14:10.235Z,9.20
2023-03-06T07:16:37.204Z,8.30
2023-03-06T07:19:04.413Z,6.90
2023-03-06T07:21:31.225Z,7.03
2023-03-06T07:23:58.058Z,9.90
2023-03-06T07:26:26.353Z,8.23
2023-03-06T07:28:54.076Z,5.50
2023-03-06T07:31:23.760Z,7.87
2023-03-06T07:33:51.217Z,5.75
2023-03-06T07:36:18.442Z,7.80
2023-03-06T07:38:45.549Z,6.68
2023-03-06T07:41:13.817Z,8.85
2023-03-06T07:43:41.900Z,7.00
2023-03-06T07:46:09.195Z,6.97
2023-03-06T07:48:37.717Z,8.02
2023-03-06T07:51:07.122Z,4.57
2023-03-06T07:53:35.512Z,6.25
2023-03-06T07:56:08.881Z,4.80
2023-03-06T07:58:38.060Z,6.03
2023-03-06T08:01:06.627Z,5.95
2023-03-06T08:03:33.895Z,5.22
2023-03-06T08:06:07.087Z,6.32
2023-03-06T08:08:35.503Z,5.93
2023-03-06T08:11:02.502Z,6.07
2023-03-06T08:13:29.385Z,4.70
2023-03-06T08:15:56.705Z,4.35
2023-03-06T08:18:23.680Z,7.22
2023-03-06T08:20:50.606Z,4.93
2023-03-06T08:23:17.625Z,5.03
2023-03-06T08:25:44.420Z,5.80
2023-03-06T08:28:11.267Z,4.68
2023-03-06T08:30:38.695Z,3.55
2023-03-06T08:33:05.534Z,3.20
2023-03-06T08:35:32.589Z,4.15
2023-03-06T08:37:59.408Z,4.85
2023-03-06T08:40:30.384Z,3.63
2023-03-06T08:42:57.173Z,4.10
2023-03-06T08:45:23.964Z,3.07
2023-03-06T08:47:50.768Z,3.90
2023-03-06T08:50:18.969Z,2.55
2023-03-06T08:52:45.763Z,3.60
2023-03-06T08:55:14.791Z,3.38
2023-03-06T08:57:41.876Z,3.03
2023-03-06T09:00:10.875Z,4.03
2023-03-06T09:02:37.851Z,3.60
2023-03-06T09:05:09.210Z,3.88
2023-03-06T09:07:36.343Z,4.10
2023-03-06T09:10:03.303Z,3.43
2023-03-06T09:12:32.656Z,2.65
2023-03-06T09:15:05.436Z,2.50
2023-03-06T09:17:32.341Z,2.60
2023-03-06T09:19:59.315Z,3.75
2023-03-06T09:22:26.098Z,2.30
2023-03-06T09:24:54.031Z,3.58
2023-03-06T09:27:22.773Z,2.13
2023-03-06T09:29:49.702Z,3.20
2023-03-06T09:32:16.575Z,4.43
2023-03-06T09:34:43.504Z,3.17
2023-03-06T09:37:10.374Z,2.38
2023-03-06T09:39:41.777Z,3.08
2023-03-06T09:42:15.143Z,1.73
2023-03-06T09:44:43.466Z,2.13
2023-03-06T09:47:35.246Z,2.30
2023-03-06T09:50:43.490Z,2.97
2023-03-06T09:53:19.549Z,2.20
2023-03-06T09:55:51.726Z,2.67
2023-03-06T09:58:22.967Z,2.20
2023-03-06T10:01:16.314Z,2.97
2023-03-06T10:03:55.021Z,3.58
2023-03-06T10:06:36.978Z,2.13
2023-03-06T10:09:19.150Z,3.53
2023-03-06T10:11:52.752Z,1.83
2023-03-06T10:14:43.809Z,1.73
2023-03-06T10:17:18.467Z,2.28
2023-03-06T10:19:47.668Z,2.70
2023-03-06T10:22:39.187Z,2.95
2023-03-06T10:25:26.077Z,3.55
2023-03-06T10:28:12.914Z,3.37
2023-03-06T10:31:03.269Z,2.65
2023-03-06T10:33:51.555Z,5.00
2023-03-06T10:36:21.455Z,2.95
2023-03-06T10:38:48.843Z,2.20
2023-03-06T10:41:29.917Z,3.37
2023-03-06T10:43:59.825Z,3.35
2023-03-06T10:46:39.239Z,2.58
2023-03-06T10:49:26.289Z,2.75
2023-03-06T10:51:59.339Z,4.38
2023-03-06T10:54:28.578Z,2.30
2023-03-06T10:56:55.553Z,5.00
2023-03-06T10:59:28.274Z,3.45
2023-03-06T11:02:14.237Z,4.07
2023-03-06T11:04:46.562Z,5.05
2023-03-06T11:07:21.608Z,4.43
2023-03-06T11:09:57.408Z,2.85
2023-03-06T11:12:42.514Z,3.08
2023-03-06T11:15:23.514Z,3.72
2023-03-06T11:18:07.503Z,3.85
2023-03-06T11:20:50.008Z,7.20
2023-03-06T11:23:38.354Z,4.25
2023-03-06T11:26:25.485Z,3.45
2023-03-06T11:29:15.845Z,3.53
2023-03-06T11:31:58.450Z,4.35
2023-03-06T11:34:34.779Z,2.73
2023-03-06T11:37:40.164Z,4.50
2023-03-06T11:40:40.337Z,3.75
2023-03-06T11:43:16.066Z,5.97
2023-03-06T11:45:47.285Z,3.83
2023-03-06T11:48:14.141Z,5.20
2023-03-06T11:50:42.941Z,5.05
2023-03-06T11:53:14.975Z,5.13
2023-03-06T11:56:03.514Z,7.70
2023-03-06T11:59:11.891Z,7.38
2023-03-06T12:01:38.820Z,7.20
2023-03-06T12:04:05.626Z,6.68
2023-03-06T12:06:56.748Z,7.25
2023-03-06T12:09:26.412Z,6.68
2023-03-06T12:15:12.238Z,8.53
2023-03-06T12:17:57.174Z,7.55
2023-03-06T12:20:48.322Z,8.98
2023-03-06T12:23:53.691Z,7.03
2023-03-06T12:26:48.638Z,7.43
2023-03-06T12:29:44.847Z,9.17
2023-03-06T12:32:35.111Z,8.52
2023-03-06T12:35:32.537Z,9.60
2023-03-06T12:38:08.009Z,8.30
2023-03-06T12:40:59.858Z,8.05
2023-03-06T12:43:50.665Z,10.20
2023-03-06T12:46:21.664Z,10.77
2023-03-06T12:49:03.046Z,9.25
2023-03-06T12:51:31.239Z,10.10
2023-03-06T12:54:00.054Z,9.35
2023-03-06T12:56:28.373Z,10.90
2023-03-06T12:58:57.160Z,10.93
2023-03-06T13:01:49.559Z,11.98
2023-03-06T13:04:40.798Z,8.93
2023-03-06T13:07:47.566Z,11.07
2023-03-06T13:10:28.847Z,11.13
2023-03-06T13:13:01.195Z,11.50
2023-03-06T13:15:37.040Z,10.57
2023-03-06T13:18:22.496Z,11.73
2023-03-06T13:20:54.147Z,11.18
2023-03-06T13:23:33.064Z,11.03
2023-03-06T13:26:01.054Z,10.07
2023-03-06T13:28:45.100Z,9.40
2023-03-06T13:31:27.555Z,10.50
2023-03-06T13:34:02.639Z,11.18
2023-03-06T13:36:34.256Z,10.43
2023-03-06T13:39:11.171Z,9.25
2023-03-06T13:41:53.107Z,10.98
2023-03-06T13:44:26.280Z,7.90
2023-03-06T13:46:59.729Z,7.47
2023-03-06T13:49:27.494Z,9.50
2023-03-06T13:51:54.414Z,9.15
2023-03-06T13:54:36.295Z,7.20
2023-03-06T13:57:36.642Z,10.27
2023-03-06T14:00:13.458Z,7.43
2023-03-06T14:03:10.603Z,8.47
2023-03-06T14:05:55.943Z,8.38
2023-03-06T14:08:30.667Z,7.65
2023-03-06T14:11:20.931Z,9.77
2023-03-06T14:13:54.847Z,9.25
2023-03-06T14:16:29.202Z,10.10
2023-03-06T14:19:00.772Z,8.35
2023-03-06T14:21:38.037Z,7.95
2023-03-06T14:24:05.652Z,8.95
2023-03-06T14:26:40.087Z,9.15
2023-03-06T14:29:22.648Z,10.10
2023-03-06T14:31:51.646Z,9.63
2023-03-06T14:34:22.543Z,9.15
2023-03-06T14:36:51.937Z,12.93
2023-03-06T14:39:41.898Z,9.43
2023-03-06T14:42:24.180Z,9.60
2023-03-06T14:45:05.876Z,10.00
2023-03-06T14:47:35.253Z,7.32
2023-03-06T14:50:30.723Z,5.97
2023-03-06T14:53:13.888Z,6.10
2023-03-06T14:55:51.779Z,5.67
2023-03-06T14:58:24.928Z,6.47
2023-03-06T15:00:54.692Z,7.05
2023-03-06T15:03:27.794Z,5.65
2023-03-06T15:05:55.302Z,6.38
2023-03-06T15:11:18.439Z,5.60
2023-03-06T15:14:44.442Z,9.52
2023-03-06T15:17:17.684Z,6.57
2023-03-06T15:19:46.825Z,7.50
2023-03-06T15:22:40.305Z,7.90
2023-03-06T15:25:36.665Z,7.10
2023-03-06T15:28:22.300Z,9.45
2023-03-06T15:31:11.120Z,9.13
2023-03-06T15:33:38.051Z,10.25
2023-03-06T15:36:07.128Z,10.30
2023-03-06T15:38:41.870Z,11.45
2023-03-06T15:41:30.787Z,12.00
2023-03-06T15:44:02.944Z,13.15
2023-03-06T15:46:30.321Z,13.80
2023-03-06T15:49:00.667Z,19.07
2023-03-06T15:51:29.379Z,17.33
2023-03-06T15:54:09.848Z,15.95
2023-03-06T15:56:41.779Z,15.32
2023-03-06T15:59:23.617Z,17.92
2023-03-06T16:01:51.132Z,21.93
2023-03-06T16:04:18.721Z,21.52
2023-03-06T16:06:46.058Z,17.23
2023-03-06T16:09:14.087Z,14.43
2023-03-06T16:11:46.688Z,17.30
2023-03-06T16:14:21.019Z,20.23
2023-03-06T16:16:48.779Z,19.90
2023-03-06T16:19:25.933Z,19.27
2023-03-06T16:21:53.736Z,21.48
2023-03-06T16:24:20.476Z,19.27
2023-03-06T16:26:50.955Z,20.70
2023-03-06T16:29:21.179Z,21.25
2023-03-06T16:31:48.129Z,27.38
2023-03-06T16:34:15.624Z,20.60
2023-03-06T16:36:42.612Z,20.83
2023-03-06T16:39:15.579Z,23.67
2023-03-06T16:41:42.479Z,25.13
2023-03-06T16:44:10.226Z,19.20
2023-03-06T16:46:42.662Z,14.60
2023-03-06T16:49:29.947Z,20.83
2023-03-06T16:51:56.905Z,18.27
2023-03-06T16:54:26.025Z,19.45
2023-03-06T16:56:52.891Z,16.02
2023-03-06T16:59:19.806Z,17.48
2023-03-06T17:01:46.932Z,14.98
2023-03-06T17:04:14.004Z,14.27
2023-03-06T17:06:41.933Z,12.77
2023-03-06T17:09:10.863Z,15.32
2023-03-06T17:11:38.756Z,15.77
2023-03-06T17:14:06.827Z,15.40
2023-03-06T17:16:33.965Z,14.23
2023-03-06T17:19:02.355Z,15.57
2023-03-06T17:21:30.332Z,22.20
2023-03-06T17:23:57.445Z,14.30
2023-03-06T17:26:24.508Z,21.17
2023-03-06T17:28:51.320Z,21.77
2023-03-06T17:31:21.332Z,18.25
2023-03-06T17:33:49.306Z,15.07
2023-03-06T17:36:16.577Z,19.48
2023-03-06T17:38:43.699Z,16.08
2023-03-06T17:41:12.191Z,19.70
2023-03-06T17:43:40.376Z,20.52
2023-03-06T17:46:09.673Z,22.50
2023-03-06T17:48:37.059Z,19.70
2023-03-06T17:51:04.938Z,21.10
2023-03-06T17:53:32.329Z,20.07
2023-03-06T17:55:59.250Z,21.38
2023-03-06T17:58:27.067Z,20.67
2023-03-06T18:00:54.192Z,17.38
2023-03-06T18:03:21.143Z,19.58
2023-03-06T18:05:48.159Z,19.43
2023-03-06T18:08:15.175Z,20.95
2023-03-06T18:10:43.332Z,19.02
2023-03-06T18:13:10.749Z,19.85
2023-03-06T18:15:41.535Z,25.05
2023-03-06T18:18:09.105Z,22.80
2023-03-06T18:20:41.232Z,19.48
2023-03-06T18:23:08.092Z,19.45
2023-03-06T18:25:35.451Z,26.10
2023-03-06T18:28:02.576Z,24.13
2023-03-06T18:30:29.427Z,25.40
2023-03-06T18:32:56.416Z,21.55
2023-03-06T18:35:23.314Z,25.65
2023-03-06T18:37:50.177Z,20.60
2023-03-06T18:40:17.176Z,26.13
2023-03-06T18:42:44.057Z,20.90
2023-03-06T18:45:12.846Z,19.10
2023-03-06T18:47:40.620Z,24.83
2023-03-06T18:50:07.759Z,18.27
2023-03-06T18:52:35.536Z,23.88
2023-03-06T18:55:02.486Z,25.57
2023-03-06T18:57:30.442Z,26.85
2023-03-06T18:59:57.339Z,22.15
2023-03-06T19:02:24.164Z,17.15
2023-03-06T19:04:52.825Z,28.73
2023-03-06T19:07:20.045Z,23.27
2023-03-06T19:09:49.007Z,30.35
2023-03-06T19:12:16.707Z,28.92
2023-03-06T19:14:44.218Z,30.60
2023-03-06T19:17:11.197Z,23.67
2023-03-06T19:19:38.084Z,24.43
2023-03-06T19:22:04.912Z,24.92
2023-03-06T19:24:31.720Z,26.73
2023-03-06T19:26:58.623Z,26.90
2023-03-06T19:29:25.513Z,40.55
2023-03-06T19:31:52.441Z,31.97
2023-03-06T19:34:19.373Z,32.83
2023-03-06T19:36:46.307Z,29.80
2023-03-06T19:39:13.215Z,31.15
2023-03-06T19:41:40.043Z,24.17
2023-03-06T19:44:06.905Z,30.40
2023-03-06T19:46:35.207Z,23.08
2023-03-06T19:49:03.637Z,28.17
2023-03-06T19:51:30.574Z,27.98
2023-03-06T19:53:58.198Z,30.80
2023-03-06T19:56:27.621Z,28.23
2023-03-06T19:58:55.193Z,36.13
2023-03-06T20:01:25.571Z,42.17
2023-03-06T20:03:58.924Z,30.13
2023-03-06T20:06:28.404Z,31.90
2023-03-06T20:08:55.570Z,28.80
2023-03-06T20:11:29.730Z,27.60
2023-03-06T20:13:58.577Z,29.15
2023-03-06T20:16:27.923Z,22.58
2023-03-06T20:18:58.138Z,28.52
2023-03-06T20:21:26.598Z,24.17
2023-03-06T20:23:54.936Z,30.35
2023-03-06T20:26:22.137Z,34.60
2023-03-06T20:28:49.265Z,27.55
2023-03-06T20:31:21.644Z,27.40
2023-03-06T20:33:50.860Z,30.50
2023-03-06T20:36:23.954Z,24.33
2023-03-06T20:38:51.171Z,29.67
2023-03-06T20:41:20.656Z,30.25
2023-03-06T20:43:48.357Z,29.02
2023-03-06T20:46:15.995Z,29.63
2023-03-06T20:48:43.593Z,24.55
2023-03-06T20:51:16.718Z,26.45
2023-03-06T20:53:43.704Z,21.17
2023-03-06T20:56:15.168Z,22.73
2023-03-06T20:58:42.101Z,25.30
2023-03-06T21:01:09.015Z,28.80
2023-03-06T21:03:35.853Z,25.08
2023-03-06T21:06:02.698Z,27.08
2023-03-06T21:08:30.930Z,26.90
2023-03-06T21:10:57.785Z,32.03
2023-03-06T21:13:24.597Z,25.95
2023-03-06T21:15:51.528Z,26.40
2023-03-06T21:18:18.473Z,28.33
2023-03-06T21:20:45.317Z,27.02
2023-03-06T21:23:12.306Z,27.97
2023-03-06T21:25:51.411Z,26.58
2023-03-06T21:28:18.794Z,25.75
2023-03-06T21:30:46.062Z,22.63
2023-03-06T21:33:13.367Z,18.15
2023-03-06T21:35:41.537Z,17.03
2023-03-06T21:38:08.705Z,18.30
2023-03-06T21:40:35.640Z,17.35
2023-03-06T21:43:03.466Z,12.95
2023-03-06T21:45:31.174Z,10.73
2023-03-06T21:47:58.491Z,13.50
2023-03-06T21:50:25.977Z,8.98
2023-03-06T21:52:54.338Z,9.75
2023-03-06T21:55:21.933Z,12.13
2023-03-06T21:57:53.896Z,12.23
2023-03-06T22:00:23.693Z,11.70
2023-03-06T22:02:50.791Z,12.57
2023-03-06T22:05:18.705Z,9.95
2023-03-06T22:07:45.558Z,12.82
2023-03-06T22:10:14.318Z,8.27
2023-03-06T22:12:42.068Z,7.87
2023-03-06T22:15:09.585Z,8.52
2023-03-06T22:17:36.506Z,8.93
2023-03-06T22:20:04.393Z,7.53
2023-03-06T22:22:31.446Z,8.25
2023-03-06T22:24:58.523Z,7.80
2023-03-06T22:27:25.389Z,8.85
2023-03-06T22:29:53.338Z,9.68
2023-03-06T22:32:20.569Z,9.57
2023-03-06T22:34:47.402Z,9.27
2023-03-06T22:37:14.140Z,10.23
2023-03-06T22:39:41.031Z,11.20
2023-03-06T22:42:07.924Z,8.52
2023-03-06T22:44:34.801Z,9.95
2023-03-06T22:47:01.720Z,12.73
2023-03-06T22:49:28.455Z,11.27
2023-03-06T22:51:55.267Z,11.77
2023-03-06T22:54:22.029Z,12.90
2023-03-06T22:56:49.006Z,12.95
2023-03-06T22:59:15.749Z,13.65
2023-03-06T23:01:43.301Z,17.03
2023-03-06T23:04:11.394Z,14.02
2023-03-06T23:06:41.253Z,12.75
2023-03-06T23:09:17.336Z,13.40
2023-03-06T23:12:03.065Z,11.60
2023-03-06T23:14:51.117Z,14.13
2023-03-06T23:17:36.654Z,13.55
2023-03-06T23:20:22.273Z,8.95
2023-03-06T23:23:07.815Z,13.82
2023-03-06T23:25:40.705Z,12.45
2023-03-06T23:28:07.636Z,11.60
2023-03-06T23:30:34.494Z,12.50
2023-03-06T23:33:01.329Z,10.95
2023-03-06T23:35:28.260Z,12.50
2023-03-06T23:37:55.107Z,12.02
2023-03-06T23:40:22.297Z,14.97
2023-03-06T23:42:49.357Z,11.48
2023-03-06T23:45:16.683Z,11.23
2023-03-06T23:47:43.511Z,12.85
2023-03-06T23:50:11.180Z,10.20
2023-03-06T23:52:38.589Z,10.73
2023-03-06T23:55:06.075Z,12.55
2023-03-06T23:57:33.138Z,14.70
